sensor_id;sensor_type;location;lat;lon;timestamp;pressure;altitude;pressure_sealevel;temperature;humidity
17054;BME280;8643;48.824;11.422;2022-08-19T00:01:58;96332.53;;;18.78;100.00
17054;BME280;8643;48.824;11.422;2022-08-19T00:04:32;96336.13;;;18.71;100.00
17054;BME280;8643;48.824;11.422;2022-08-19T00:07:04;96347.22;;;18.71;100.00
17054;BME280;8643;48.824;11.422;2022-08-19T00:09:33;96351.56;;;18.76;100.00
17054;BME280;8643;48.824;11.422;2022-08-19T00:12:02;96355.09;;;18.80;100.00
17054;BME280;8643;48.824;11.422;2022-08-19T00:14:31;96367.03;;;18.84;100.00
17054;BME280;8643;48.824;11.422;2022-08-19T00:17:00;96372.94;;;18.75;100.00
17054;BME280;8643;48.824;11.422;2022-08-19T00:19:31;96378.50;;;18.72;100.00
17054;BME280;8643;48.824;11.422;2022-08-19T00:22:00;96381.25;;;18.75;100.00
17054;BME280;8643;48.824;11.422;2022-08-19T00:24:29;96381.25;;;18.79;100.00
17054;BME280;8643;48.824;11.422;2022-08-19T00:26:58;96378.88;;;18.77;100.00
17054;BME280;8643;48.824;11.422;2022-08-19T00:29:48;96378.88;;;18.77;100.00
17054;BME280;8643;48.824;11.422;2022-08-19T00:32:19;96365.81;;;18.78;100.00
17054;BME280;8643;48.824;11.422;2022-08-19T00:34:51;96378.47;;;18.75;100.00
17054;BME280;8643;48.824;11.422;2022-08-19T00:37:21;96373.75;;;18.65;100.00
17054;BME280;8643;48.824;11.422;2022-08-19T00:39:50;96383.66;;;18.59;100.00
17054;BME280;8643;48.824;11.422;2022-08-19T00:42:21;96389.19;;;18.59;100.00
17054;BME280;8643;48.824;11.422;2022-08-19T00:44:50;96393.97;;;18.58;100.00
17054;BME280;8643;48.824;11.422;2022-08-19T00:47:18;96395.94;;;18.54;100.00
17054;BME280;8643;48.824;11.422;2022-08-19T00:49:53;96391.97;;;18.55;100.00
17054;BME280;8643;48.824;11.422;2022-08-19T00:52:27;96395.94;;;18.58;100.00
17054;BME280;8643;48.824;11.422;2022-08-19T00:54:58;96395.94;;;18.58;100.00
17054;BME280;8643;48.824;11.422;2022-08-19T00:57:32;96383.25;;;18.67;100.00
17054;BME280;8643;48.824;11.422;2022-08-19T01:00:10;96382.47;;;18.74;100.00
17054;BME280;8643;48.824;11.422;2022-08-19T01:02:41;96391.16;;;18.83;100.00
17054;BME280;8643;48.824;11.422;2022-08-19T01:05:15;96393.94;;;18.73;100.00
17054;BME280;8643;48.824;11.422;2022-08-19T01:07:45;96395.94;;;18.76;100.00
17054;BME280;8643;48.824;11.422;2022-08-19T01:10:20;96395.50;;;18.74;100.00
17054;BME280;8643;48.824;11.422;2022-08-19T01:12:52;96397.09;;;18.85;100.00
17054;BME280;8643;48.824;11.422;2022-08-19T01:15:27;96393.16;;;18.86;100.00
17054;BME280;8643;48.824;11.422;2022-08-19T01:18:02;96404.63;;;18.96;100.00
17054;BME280;8643;48.824;11.422;2022-08-19T01:20:33;96400.25;;;19.02;100.00
17054;BME280;8643;48.824;11.422;2022-08-19T01:23:04;96398.66;;;19.01;100.00
17054;BME280;8643;48.824;11.422;2022-08-19T01:25:41;96401.44;;;19.01;100.00
17054;BME280;8643;48.824;11.422;2022-08-19T01:28:18;96404.22;;;18.97;100.00
17054;BME280;8643;48.824;11.422;2022-08-19T01:31:09;96414.53;;;18.90;100.00
17054;BME280;8643;48.824;11.422;2022-08-19T01:33:56;96413.75;;;18.85;100.00
17054;BME280;8643;48.824;11.422;2022-08-19T01:36:29;96412.16;;;18.77;100.00
17054;BME280;8643;48.824;11.422;2022-08-19T01:38:59;96418.09;;;18.90;100.00
17054;BME280;8643;48.824;11.422;2022-08-19T01:41:28;96424.81;;;18.96;100.00
17054;BME280;8643;48.824;11.422;2022-08-19T01:43:56;96424.44;;;18.76;100.00
17054;BME280;8643;48.824;11.422;2022-08-19T01:46:44;96427.59;;;18.82;100.00
17054;BME280;8643;48.824;11.422;2022-08-19T01:49:16;96433.56;;;18.66;100.00
17054;BME280;8643;48.824;11.422;2022-08-19T01:51:45;96443.88;;;18.40;100.00
17054;BME280;8643;48.824;11.422;2022-08-19T01:54:18;96441.09;;;18.37;100.00
17054;BME280;8643;48.824;11.422;2022-08-19T01:56:59;96447.81;;;18.28;100.00
17054;BME280;8643;48.824;11.422;2022-08-19T01:59:30;96443.84;;;18.29;100.00
17054;BME280;8643;48.824;11.422;2022-08-19T02:01:59;96441.88;;;18.34;100.00
17054;BME280;8643;48.824;11.422;2022-08-19T02:04:28;96441.47;;;18.17;100.00
17054;BME280;8643;48.824;11.422;2022-08-19T02:06:57;96443.03;;;18.14;100.00
17054;BME280;8643;48.824;11.422;2022-08-19T02:09:27;96447.03;;;18.21;100.00
17054;BME280;8643;48.824;11.422;2022-08-19T02:11:55;96439.09;;;18.30;100.00
17054;BME280;8643;48.824;11.422;2022-08-19T02:14:24;96441.47;;;18.28;100.00
17054;BME280;8643;48.824;11.422;2022-08-19T02:16:52;96445.44;;;18.34;100.00
17054;BME280;8643;48.824;11.422;2022-08-19T02:19:20;96459.69;;;18.29;100.00
17054;BME280;8643;48.824;11.422;2022-08-19T02:21:49;96468.38;;;18.17;100.00
17054;BME280;8643;48.824;11.422;2022-08-19T02:24:17;96479.84;;;18.19;100.00
17054;BME280;8643;48.824;11.422;2022-08-19T02:26:47;96474.75;;;18.35;100.00
17054;BME280;8643;48.824;11.422;2022-08-19T02:29:15;96464.44;;;18.39;100.00
17054;BME280;8643;48.824;11.422;2022-08-19T02:31:44;96459.31;;;18.52;100.00
17054;BME280;8643;48.824;11.422;2022-08-19T02:34:12;96446.25;;;18.45;100.00
17054;BME280;8643;48.824;11.422;2022-08-19T02:36:40;96444.25;;;18.42;100.00
17054;BME280;8643;48.824;11.422;2022-08-19T02:39:09;96444.25;;;18.49;100.00
17054;BME280;8643;48.824;11.422;2022-08-19T02:41:36;96452.19;;;18.37;100.00
17054;BME280;8643;48.824;11.422;2022-08-19T02:44:06;96451.34;;;18.22;100.00
17054;BME280;8643;48.824;11.422;2022-08-19T02:46:54;96430.38;;;18.24;100.00
17054;BME280;8643;48.824;11.422;2022-08-19T02:49:22;96422.84;;;18.25;100.00
17054;BME280;8643;48.824;11.422;2022-08-19T02:51:51;96409.41;;;18.34;100.00
17054;BME280;8643;48.824;11.422;2022-08-19T02:54:19;96403.88;;;18.27;100.00
17054;BME280;8643;48.824;11.422;2022-08-19T02:56:48;96408.22;;;18.21;100.00
17054;BME280;8643;48.824;11.422;2022-08-19T02:59:18;96411.78;;;18.14;100.00
17054;BME280;8643;48.824;11.422;2022-08-19T03:01:49;96413.34;;;18.11;100.00
17054;BME280;8643;48.824;11.422;2022-08-19T03:04:18;96411.38;;;18.01;100.00
17054;BME280;8643;48.824;11.422;2022-08-19T03:06:48;96414.53;;;18.03;100.00
17054;BME280;8643;48.824;11.422;2022-08-19T03:09:19;96416.84;;;17.87;100.00
17054;BME280;8643;48.824;11.422;2022-08-19T03:11:47;96410.16;;;17.88;100.00
17054;BME280;8643;48.824;11.422;2022-08-19T03:14:20;96411.34;;;17.90;100.00
17054;BME280;8643;48.824;11.422;2022-08-19T03:16:51;96416.81;;;17.76;100.00
17054;BME280;8643;48.824;11.422;2022-08-19T03:19:20;96422.41;;;17.87;100.00
17054;BME280;8643;48.824;11.422;2022-08-19T03:21:49;96420.00;;;17.78;100.00
17054;BME280;8643;48.824;11.422;2022-08-19T03:24:19;96431.84;;;17.71;100.00
17054;BME280;8643;48.824;11.422;2022-08-19T03:26:50;96432.22;;;17.66;100.00
17054;BME280;8643;48.824;11.422;2022-08-19T03:29:20;96428.72;;;17.76;100.00
17054;BME280;8643;48.824;11.422;2022-08-19T03:31:58;96439.81;;;17.87;100.00
17054;BME280;8643;48.824;11.422;2022-08-19T03:34:30;96434.25;;;17.80;100.00
17054;BME280;8643;48.824;11.422;2022-08-19T03:37:04;96441.78;;;17.83;100.00
17054;BME280;8643;48.824;11.422;2022-08-19T03:39:35;96430.34;;;17.88;100.00
17054;BME280;8643;48.824;11.422;2022-08-19T03:42:04;96426.41;;;18.00;100.00
17054;BME280;8643;48.824;11.422;2022-08-19T03:44:54;96425.16;;;17.87;100.00
17054;BME280;8643;48.824;11.422;2022-08-19T03:47:22;96427.50;;;17.81;100.00
17054;BME280;8643;48.824;11.422;2022-08-19T03:49:50;96427.53;;;17.85;100.00
17054;BME280;8643;48.824;11.422;2022-08-19T03:52:18;96423.16;;;17.84;100.00
17054;BME280;8643;48.824;11.422;2022-08-19T03:54:47;96426.00;;;17.98;100.00
17054;BME280;8643;48.824;11.422;2022-08-19T03:57:15;96433.50;;;17.94;100.00
17054;BME280;8643;48.824;11.422;2022-08-19T03:59:43;96436.66;;;17.92;100.00
17054;BME280;8643;48.824;11.422;2022-08-19T04:02:13;96431.16;;;17.96;100.00
17054;BME280;8643;48.824;11.422;2022-08-19T04:04:43;96432.72;;;18.01;100.00
17054;BME280;8643;48.824;11.422;2022-08-19T04:07:14;96435.09;;;17.95;100.00
17054;BME280;8643;48.824;11.422;2022-08-19T04:09:43;96435.88;;;17.92;100.00
17054;BME280;8643;48.824;11.422;2022-08-19T04:12:12;96441.03;;;17.90;100.00
17054;BME280;8643;48.824;11.422;2022-08-19T04:14:40;96446.56;;;17.97;100.00
17054;BME280;8643;48.824;11.422;2022-08-19T04:17:08;96444.22;;;17.99;100.00
17054;BME280;8643;48.824;11.422;2022-08-19T04:19:38;96440.63;;;18.02;100.00
17054;BME280;8643;48.824;11.422;2022-08-19T04:22:07;96431.97;;;18.07;100.00
17054;BME280;8643;48.824;11.422;2022-08-19T04:24:35;96446.59;;;18.11;100.00
17054;BME280;8643;48.824;11.422;2022-08-19T04:27:05;96461.63;;;18.07;100.00
17054;BME280;8643;48.824;11.422;2022-08-19T04:29:33;96465.59;;;18.13;100.00
17054;BME280;8643;48.824;11.422;2022-08-19T04:32:03;96463.66;;;18.21;100.00
17054;BME280;8643;48.824;11.422;2022-08-19T04:34:36;96472.34;;;18.26;100.00
17054;BME280;8643;48.824;11.422;2022-08-19T04:37:26;96468.41;;;18.24;100.00
17054;BME280;8643;48.824;11.422;2022-08-19T04:40:05;96470.75;;;18.22;100.00
17054;BME280;8643;48.824;11.422;2022-08-19T04:42:51;96474.72;;;18.21;100.00
17054;BME280;8643;48.824;11.422;2022-08-19T04:45:20;96475.13;;;18.16;100.00
17054;BME280;8643;48.824;11.422;2022-08-19T04:47:49;96477.91;;;18.19;100.00
17054;BME280;8643;48.824;11.422;2022-08-19T04:50:41;96475.91;;;18.20;100.00
17054;BME280;8643;48.824;11.422;2022-08-19T04:53:11;96479.88;;;18.26;100.00
17054;BME280;8643;48.824;11.422;2022-08-19T04:55:41;96481.47;;;18.34;100.00
17054;BME280;8643;48.824;11.422;2022-08-19T04:58:09;96489.78;;;18.34;100.00
17054;BME280;8643;48.824;11.422;2022-08-19T05:00:38;96498.50;;;18.29;100.00
17054;BME280;8643;48.824;11.422;2022-08-19T05:03:08;96504.03;;;18.29;100.00
17054;BME280;8643;48.824;11.422;2022-08-19T05:05:40;96493.34;;;18.35;100.00
17054;BME280;8643;48.824;11.422;2022-08-19T05:08:14;96493.75;;;18.40;100.00
17054;BME280;8643;48.824;11.422;2022-08-19T05:10:57;96503.28;;;18.50;100.00
17054;BME280;8643;48.824;11.422;2022-08-19T05:13:26;96496.13;;;18.49;100.00
17054;BME280;8643;48.824;11.422;2022-08-19T05:15:57;96500.91;;;18.52;100.00
17054;BME280;8643;48.824;11.422;2022-08-19T05:18:26;96501.28;;;18.54;100.00
17054;BME280;8643;48.824;11.422;2022-08-19T05:21:16;96513.56;;;18.64;100.00
17054;BME280;8643;48.824;11.422;2022-08-19T05:24:06;96509.22;;;18.56;100.00
17054;BME280;8643;48.824;11.422;2022-08-19T05:26:36;96501.31;;;18.61;100.00
17054;BME280;8643;48.824;11.422;2022-08-19T05:29:05;96506.03;;;18.54;100.00
17054;BME280;8643;48.824;11.422;2022-08-19T05:31:37;96498.91;;;18.67;100.00
17054;BME280;8643;48.824;11.422;2022-08-19T05:34:08;96508.41;;;18.59;100.00
17054;BME280;8643;48.824;11.422;2022-08-19T05:36:46;96514.00;;;18.66;100.00
17054;BME280;8643;48.824;11.422;2022-08-19T05:39:20;96512.78;;;18.60;100.00
17054;BME280;8643;48.824;11.422;2022-08-19T05:41:52;96509.63;;;18.68;100.00
17054;BME280;8643;48.824;11.422;2022-08-19T05:44:21;96507.25;;;18.74;100.00
17054;BME280;8643;48.824;11.422;2022-08-19T05:46:49;96504.09;;;18.79;100.00
17054;BME280;8643;48.824;11.422;2022-08-19T05:49:22;96504.47;;;18.78;100.00
17054;BME280;8643;48.824;11.422;2022-08-19T05:51:51;96494.16;;;18.78;100.00
17054;BME280;8643;48.824;11.422;2022-08-19T05:54:23;96497.75;;;18.64;100.00
17054;BME280;8643;48.824;11.422;2022-08-19T05:56:53;96498.13;;;18.59;100.00
17054;BME280;8643;48.824;11.422;2022-08-19T05:59:22;96501.69;;;18.56;100.00
17054;BME280;8643;48.824;11.422;2022-08-19T06:01:52;96498.50;;;18.58;100.00
17054;BME280;8643;48.824;11.422;2022-08-19T06:04:24;96487.41;;;18.58;100.00
17054;BME280;8643;48.824;11.422;2022-08-19T06:06:54;96485.06;;;18.63;100.00
17054;BME280;8643;48.824;11.422;2022-08-19T06:09:24;96486.66;;;18.64;100.00
17054;BME280;8643;48.824;11.422;2022-08-19T06:11:55;96486.66;;;18.68;100.00
17054;BME280;8643;48.824;11.422;2022-08-19T06:14:31;96486.25;;;18.69;100.00
17054;BME280;8643;48.824;11.422;2022-08-19T06:17:06;96492.19;;;18.61;100.00
17054;BME280;8643;48.824;11.422;2022-08-19T06:19:34;96483.50;;;18.66;100.00
17054;BME280;8643;48.824;11.422;2022-08-19T06:22:08;96487.44;;;18.65;100.00
17054;BME280;8643;48.824;11.422;2022-08-19T06:24:40;96481.88;;;18.65;100.00
17054;BME280;8643;48.824;11.422;2022-08-19T06:27:08;96481.88;;;18.79;100.00
17054;BME280;8643;48.824;11.422;2022-08-19T06:29:37;96478.31;;;18.82;100.00
17054;BME280;8643;48.824;11.422;2022-08-19T06:32:06;96483.47;;;18.80;100.00
17054;BME280;8643;48.824;11.422;2022-08-19T06:34:35;96484.25;;;18.77;100.00
17054;BME280;8643;48.824;11.422;2022-08-19T06:37:03;96487.03;;;18.77;100.00
17054;BME280;8643;48.824;11.422;2022-08-19T06:39:37;96492.56;;;18.74;100.00
17054;BME280;8643;48.824;11.422;2022-08-19T06:42:08;96501.31;;;18.79;100.00
17054;BME280;8643;48.824;11.422;2022-08-19T06:44:41;96509.25;;;18.92;100.00
17054;BME280;8643;48.824;11.422;2022-08-19T06:47:18;96516.00;;;18.94;100.00
17054;BME280;8643;48.824;11.422;2022-08-19T06:49:53;96507.63;;;19.05;100.00
17054;BME280;8643;48.824;11.422;2022-08-19T06:52:34;96515.59;;;18.92;100.00
17054;BME280;8643;48.824;11.422;2022-08-19T06:55:06;96517.56;;;18.88;100.00
17054;BME280;8643;48.824;11.422;2022-08-19T06:57:35;96517.56;;;18.88;100.00
17054;BME280;8643;48.824;11.422;2022-08-19T07:00:05;96521.53;;;18.91;100.00
17054;BME280;8643;48.824;11.422;2022-08-19T07:02:39;96518.38;;;18.96;100.00
17054;BME280;8643;48.824;11.422;2022-08-19T07:05:14;96514.81;;;18.99;100.00
17054;BME280;8643;48.824;11.422;2022-08-19T07:07:42;96506.84;;;19.08;100.00
17054;BME280;8643;48.824;11.422;2022-08-19T07:10:13;96521.94;;;19.03;100.00
17054;BME280;8643;48.824;11.422;2022-08-19T07:12:44;96510.41;;;19.12;100.00
17054;BME280;8643;48.824;11.422;2022-08-19T07:15:14;96505.66;;;19.13;100.00
17054;BME280;8643;48.824;11.422;2022-08-19T07:17:44;96500.91;;;19.13;100.00
17054;BME280;8643;48.824;11.422;2022-08-19T07:20:19;96504.06;;;19.19;100.00
17054;BME280;8643;48.824;11.422;2022-08-19T07:22:54;96498.13;;;19.06;100.00
17054;BME280;8643;48.824;11.422;2022-08-19T07:25:22;96502.50;;;19.11;100.00
17054;BME280;8643;48.824;11.422;2022-08-19T07:28:00;96496.97;;;19.03;100.00
17054;BME280;8643;48.824;11.422;2022-08-19T07:30:29;96508.47;;;18.88;100.00
17054;BME280;8643;48.824;11.422;2022-08-19T07:32:57;96508.06;;;18.93;100.00
17054;BME280;8643;48.824;11.422;2022-08-19T07:35:29;96502.91;;;18.95;100.00
17054;BME280;8643;48.824;11.422;2022-08-19T07:37:59;96506.47;;;19.06;100.00
17054;BME280;8643;48.824;11.422;2022-08-19T07:40:30;96505.28;;;19.07;100.00
17054;BME280;8643;48.824;11.422;2022-08-19T07:43:00;96512.41;;;19.04;100.00
17054;BME280;8643;48.824;11.422;2022-08-19T07:45:28;96510.44;;;19.09;100.00
17054;BME280;8643;48.824;11.422;2022-08-19T07:47:58;96517.16;;;19.11;100.00
17054;BME280;8643;48.824;11.422;2022-08-19T07:50:28;96525.91;;;18.99;100.00
17054;BME280;8643;48.824;11.422;2022-08-19T07:52:56;96522.31;;;18.98;100.00
17054;BME280;8643;48.824;11.422;2022-08-19T07:55:26;96520.75;;;19.01;100.00
17054;BME280;8643;48.824;11.422;2022-08-19T07:58:12;96512.41;;;19.08;100.00
17054;BME280;8643;48.824;11.422;2022-08-19T08:00:42;96518.34;;;19.14;100.00
17054;BME280;8643;48.824;11.422;2022-08-19T08:03:12;96513.59;;;19.14;100.00
17054;BME280;8643;48.824;11.422;2022-08-19T08:05:41;96520.72;;;19.22;100.00
17054;BME280;8643;48.824;11.422;2022-08-19T08:08:26;96507.63;;;19.30;100.00
17054;BME280;8643;48.824;11.422;2022-08-19T08:11:17;96502.44;;;19.43;100.00
17054;BME280;8643;48.824;11.422;2022-08-19T08:13:49;96497.63;;;19.54;100.00
17054;BME280;8643;48.824;11.422;2022-08-19T08:16:33;96501.53;;;19.71;100.00
17054;BME280;8643;48.824;11.422;2022-08-19T08:19:06;96490.41;;;19.86;100.00
17054;BME280;8643;48.824;11.422;2022-08-19T08:21:47;96499.50;;;19.93;100.00
17054;BME280;8643;48.824;11.422;2022-08-19T08:24:16;96494.41;;;19.77;100.00
17054;BME280;8643;48.824;11.422;2022-08-19T08:26:44;96505.94;;;19.69;100.00
17054;BME280;8643;48.824;11.422;2022-08-19T08:29:24;96504.72;;;19.66;100.00
17054;BME280;8643;48.824;11.422;2022-08-19T08:32:01;96498.38;;;19.62;100.00
17054;BME280;8643;48.824;11.422;2022-08-19T08:34:40;96503.97;;;19.58;100.00
17054;BME280;8643;48.824;11.422;2022-08-19T08:37:09;96498.78;;;19.68;100.00
17054;BME280;8643;48.824;11.422;2022-08-19T08:39:37;96494.03;;;19.75;100.00
17054;BME280;8643;48.824;11.422;2022-08-19T08:42:13;96485.22;;;19.95;100.00
17054;BME280;8643;48.824;11.422;2022-08-19T08:44:59;96489.53;;;20.03;100.00
17054;BME280;8643;48.824;11.422;2022-08-19T08:47:34;96485.09;;;20.13;100.00
17054;BME280;8643;48.824;11.422;2022-08-19T08:50:13;96483.88;;;20.21;100.00
17054;BME280;8643;48.824;11.422;2022-08-19T08:52:50;96486.66;;;20.14;100.00
17054;BME280;8643;48.824;11.422;2022-08-19T08:55:25;96484.69;;;20.14;100.00
17054;BME280;8643;48.824;11.422;2022-08-19T08:58:06;96484.19;;;20.34;100.00
17054;BME280;8643;48.824;11.422;2022-08-19T09:00:46;96485.75;;;20.35;100.00
17054;BME280;8643;48.824;11.422;2022-08-19T09:03:19;96490.13;;;20.36;100.00
17054;BME280;8643;48.824;11.422;2022-08-19T09:05:59;96498.31;;;20.58;100.00
17054;BME280;8643;48.824;11.422;2022-08-19T09:08:40;96497.00;;;20.77;100.00
17054;BME280;8643;48.824;11.422;2022-08-19T09:11:21;96499.56;;;21.05;100.00
17054;BME280;8643;48.824;11.422;2022-08-19T09:14:20;96502.50;;;20.84;100.00
17054;BME280;8643;48.824;11.422;2022-08-19T09:17:14;96493.47;;;21.18;100.00
17054;BME280;8643;48.824;11.422;2022-08-19T09:19:54;96502.56;;;21.22;100.00
17054;BME280;8643;48.824;11.422;2022-08-19T09:22:23;96500.63;;;21.19;100.00
17054;BME280;8643;48.824;11.422;2022-08-19T09:24:55;96503.94;;;21.03;100.00
17054;BME280;8643;48.824;11.422;2022-08-19T09:27:26;96500.00;;;20.97;100.00
17054;BME280;8643;48.824;11.422;2022-08-19T09:30:19;96498.41;;;20.99;100.00
17054;BME280;8643;48.824;11.422;2022-08-19T09:32:50;96498.50;;;20.88;100.00
17054;BME280;8643;48.824;11.422;2022-08-19T09:35:22;96508.00;;;20.95;100.00
17054;BME280;8643;48.824;11.422;2022-08-19T09:37:51;96501.91;;;21.07;100.00
17054;BME280;8643;48.824;11.422;2022-08-19T09:40:26;96507.78;;;21.16;100.00
17054;BME280;8643;48.824;11.422;2022-08-19T09:42:57;96506.28;;;21.08;100.00
17054;BME280;8643;48.824;11.422;2022-08-19T09:45:36;96506.56;;;20.72;100.00
17054;BME280;8643;48.824;11.422;2022-08-19T09:48:05;96506.53;;;20.76;100.00
17054;BME280;8643;48.824;11.422;2022-08-19T09:50:35;96502.97;;;20.75;100.00
17054;BME280;8643;48.824;11.422;2022-08-19T09:53:18;96504.31;;;20.52;100.00
17054;BME280;8643;48.824;11.422;2022-08-19T09:55:46;96508.00;;;20.35;100.00
17054;BME280;8643;48.824;11.422;2022-08-19T09:58:14;96523.53;;;20.29;100.00
17054;BME280;8643;48.824;11.422;2022-08-19T10:00:43;96512.81;;;20.27;100.00
17054;BME280;8643;48.824;11.422;2022-08-19T10:03:19;96512.09;;;20.12;100.00
17054;BME280;8643;48.824;11.422;2022-08-19T10:05:52;96505.41;;;20.06;100.00
17054;BME280;8643;48.824;11.422;2022-08-19T10:08:26;96506.16;;;20.10;100.00
17054;BME280;8643;48.824;11.422;2022-08-19T10:10:56;96513.72;;;20.10;100.00
17054;BME280;8643;48.824;11.422;2022-08-19T10:13:28;96513.31;;;20.08;100.00
17054;BME280;8643;48.824;11.422;2022-08-19T10:16:05;96512.97;;;19.99;100.00
17054;BME280;8643;48.824;11.422;2022-08-19T10:18:35;96510.56;;;20.01;100.00
17054;BME280;8643;48.824;11.422;2022-08-19T10:21:13;96507.75;;;20.04;100.00
17054;BME280;8643;48.824;11.422;2022-08-19T10:23:45;96511.41;;;19.94;100.00
17054;BME280;8643;48.824;11.422;2022-08-19T10:26:19;96518.13;;;19.93;100.00
17054;BME280;8643;48.824;11.422;2022-08-19T10:28:48;96510.63;;;19.90;100.00
17054;BME280;8643;48.824;11.422;2022-08-19T10:31:26;96505.13;;;19.79;100.00
17054;BME280;8643;48.824;11.422;2022-08-19T10:34:17;96517.47;;;19.46;100.00
17054;BME280;8643;48.824;11.422;2022-08-19T10:36:55;96506.06;;;19.11;100.00
17054;BME280;8643;48.824;11.422;2022-08-19T10:39:28;96521.13;;;18.96;100.00
17054;BME280;8643;48.824;11.422;2022-08-19T10:41:59;96503.28;;;18.82;100.00
17054;BME280;8643;48.824;11.422;2022-08-19T10:44:27;96510.41;;;18.80;100.00
17054;BME280;8643;48.824;11.422;2022-08-19T10:46:59;96502.50;;;18.71;100.00
17054;BME280;8643;48.824;11.422;2022-08-19T10:49:29;96505.66;;;18.77;100.00
17054;BME280;8643;48.824;11.422;2022-08-19T10:51:59;96504.88;;;18.87;100.00
17054;BME280;8643;48.824;11.422;2022-08-19T10:54:47;96510.03;;;18.99;100.00
17054;BME280;8643;48.824;11.422;2022-08-19T10:57:34;96506.47;;;19.06;100.00
17054;BME280;8643;48.824;11.422;2022-08-19T11:00:24;96507.25;;;19.10;100.00
17054;BME280;8643;48.824;11.422;2022-08-19T11:02:53;96499.31;;;19.01;100.00
17054;BME280;8643;48.824;11.422;2022-08-19T11:05:24;96503.28;;;18.97;100.00
17054;BME280;8643;48.824;11.422;2022-08-19T11:07:52;96508.06;;;18.93;100.00
17054;BME280;8643;48.824;11.422;2022-08-19T11:10:20;96506.09;;;18.86;100.00
17054;BME280;8643;48.824;11.422;2022-08-19T11:12:50;96508.47;;;18.91;100.00
17054;BME280;8643;48.824;11.422;2022-08-19T11:15:21;96503.28;;;18.79;100.00
17054;BME280;8643;48.824;11.422;2022-08-19T11:17:51;96496.94;;;18.78;100.00
17054;BME280;8643;48.824;11.422;2022-08-19T11:20:22;96488.63;;;18.75;100.00
17054;BME280;8643;48.824;11.422;2022-08-19T11:22:52;96489.00;;;18.80;100.00
17054;BME280;8643;48.824;11.422;2022-08-19T11:25:21;96489.81;;;18.95;100.00
17054;BME280;8643;48.824;11.422;2022-08-19T11:27:49;96484.66;;;19.08;100.00
17054;BME280;8643;48.824;11.422;2022-08-19T11:30:19;96485.84;;;18.96;100.00
17054;BME280;8643;48.824;11.422;2022-08-19T11:32:48;96490.63;;;18.85;100.00
17054;BME280;8643;48.824;11.422;2022-08-19T11:35:16;96494.56;;;18.77;100.00
17054;BME280;8643;48.824;11.422;2022-08-19T11:37:48;96490.63;;;18.56;100.00
17054;BME280;8643;48.824;11.422;2022-08-19T11:40:17;96496.53;;;18.40;100.00
17054;BME280;8643;48.824;11.422;2022-08-19T11:42:45;96504.03;;;18.36;100.00
17054;BME280;8643;48.824;11.422;2022-08-19T11:45:23;96491.75;;;18.30;100.00
17054;BME280;8643;48.824;11.422;2022-08-19T11:47:52;96493.72;;;18.33;100.00
17054;BME280;8643;48.824;11.422;2022-08-19T11:50:21;96490.56;;;18.31;100.00
17054;BME280;8643;48.824;11.422;2022-08-19T11:52:54;96493.34;;;18.35;100.00
17054;BME280;8643;48.824;11.422;2022-08-19T11:55:23;96490.59;;;18.42;100.00
17054;BME280;8643;48.824;11.422;2022-08-19T11:57:51;96489.78;;;18.38;100.00
17054;BME280;8643;48.824;11.422;2022-08-19T12:00:20;96487.81;;;18.45;100.00
17054;BME280;8643;48.824;11.422;2022-08-19T12:02:49;96493.75;;;18.44;100.00
17054;BME280;8643;48.824;11.422;2022-08-19T12:05:17;96499.69;;;18.42;100.00
17054;BME280;8643;48.824;11.422;2022-08-19T12:07:45;96494.56;;;18.52;100.00
17054;BME280;8643;48.824;11.422;2022-08-19T12:10:15;96496.91;;;18.42;100.00
17054;BME280;8643;48.824;11.422;2022-08-19T12:12:46;96494.16;;;18.42;100.00
17054;BME280;8643;48.824;11.422;2022-08-19T12:15:25;96496.13;;;18.42;100.00
17054;BME280;8643;48.824;11.422;2022-08-19T12:18:04;96491.00;;;18.44;100.00
17054;BME280;8643;48.824;11.422;2022-08-19T12:20:35;96492.97;;;18.43;100.00
17054;BME280;8643;48.824;11.422;2022-08-19T12:23:05;96485.84;;;18.53;100.00
17054;BME280;8643;48.824;11.422;2022-08-19T12:25:36;96500.13;;;18.69;100.00
17054;BME280;8643;48.824;11.422;2022-08-19T12:28:04;96489.03;;;18.69;100.00
17054;BME280;8643;48.824;11.422;2022-08-19T12:30:32;96495.38;;;18.81;100.00
17054;BME280;8643;48.824;11.422;2022-08-19T12:33:01;96501.72;;;18.74;100.00
17054;BME280;8643;48.824;11.422;2022-08-19T12:35:29;96502.50;;;18.75;100.00
17054;BME280;8643;48.824;11.422;2022-08-19T12:37:57;96508.81;;;18.72;100.00
17054;BME280;8643;48.824;11.422;2022-08-19T12:40:27;96515.16;;;18.65;100.00
17054;BME280;8643;48.824;11.422;2022-08-19T12:42:56;96515.94;;;18.62;100.00
17054;BME280;8643;48.824;11.422;2022-08-19T12:45:25;96511.59;;;18.64;100.00
17054;BME280;8643;48.824;11.422;2022-08-19T12:47:54;96505.25;;;18.75;100.00
17054;BME280;8643;48.824;11.422;2022-08-19T12:50:22;96511.97;;;18.77;100.00
17054;BME280;8643;48.824;11.422;2022-08-19T12:52:51;96520.69;;;18.72;100.00
17054;BME280;8643;48.824;11.422;2022-08-19T12:55:19;96521.09;;;18.67;100.00
17054;BME280;8643;48.824;11.422;2022-08-19T12:57:47;96531.41;;;18.66;100.00
17054;BME280;8643;48.824;11.422;2022-08-19T13:00:21;96527.84;;;18.66;100.00
17054;BME280;8643;48.824;11.422;2022-08-19T13:02:51;96521.09;;;18.60;100.00
17054;BME280;8643;48.824;11.422;2022-08-19T13:05:24;96518.72;;;18.62;100.00
17054;BME280;8643;48.824;11.422;2022-08-19T13:07:54;96524.28;;;18.65;100.00
17054;BME280;8643;48.824;11.422;2022-08-19T13:10:30;96532.59;;;18.62;100.00
17054;BME280;8643;48.824;11.422;2022-08-19T13:13:04;96531.00;;;18.54;100.00
17054;BME280;8643;48.824;11.422;2022-08-19T13:15:36;96534.94;;;18.53;100.00
17054;BME280;8643;48.824;11.422;2022-08-19T13:18:08;96532.16;;;18.53;100.00